sensor_id;sensor_type;location;lat;lon;timestamp;temperature;humidity
57026;DHT22;43961;52.940;6.834;2023-08-12T00:00:19;20.20;99.90
57026;DHT22;43961;52.940;6.834;2023-08-12T00:02:45;20.40;99.90
57026;DHT22;43961;52.940;6.834;2023-08-12T00:05:12;19.90;99.90
57026;DHT22;43961;52.940;6.834;2023-08-12T00:07:39;20.00;99.90
57026;DHT22;43961;52.940;6.834;2023-08-12T00:10:07;20.00;99.90
57026;DHT22;43961;52.940;6.834;2023-08-12T00:12:35;20.00;99.90
57026;DHT22;43961;52.940;6.834;2023-08-12T00:15:01;20.00;99.90
57026;DHT22;43961;52.940;6.834;2023-08-12T00:17:28;20.50;99.90
57026;DHT22;43961;52.940;6.834;2023-08-12T00:19:54;20.50;99.90
57026;DHT22;43961;52.940;6.834;2023-08-12T00:22:19;19.80;99.90
57026;DHT22;43961;52.940;6.834;2023-08-12T00:24:45;20.10;99.90
57026;DHT22;43961;52.940;6.834;2023-08-12T00:27:11;19.90;99.90
57026;DHT22;43961;52.940;6.834;2023-08-12T00:33:33;20.50;99.90
57026;DHT22;43961;52.940;6.834;2023-08-12T00:35:59;20.30;99.90
57026;DHT22;43961;52.940;6.834;2023-08-12T00:38:25;20.10;99.90
57026;DHT22;43961;52.940;6.834;2023-08-12T00:40:50;19.90;99.90
57026;DHT22;43961;52.940;6.834;2023-08-12T00:43:16;20.00;99.90
57026;DHT22;43961;52.940;6.834;2023-08-12T00:45:42;20.10;99.90
57026;DHT22;43961;52.940;6.834;2023-08-12T00:48:08;19.60;99.90
57026;DHT22;43961;52.940;6.834;2023-08-12T00:50:36;19.90;99.90
57026;DHT22;43961;52.940;6.834;2023-08-12T00:53:02;19.50;99.90
57026;DHT22;43961;52.940;6.834;2023-08-12T00:55:28;20.00;99.90
57026;DHT22;43961;52.940;6.834;2023-08-12T00:57:53;19.80;99.90
57026;DHT22;43961;52.940;6.834;2023-08-12T01:00:19;19.40;99.90
57026;DHT22;43961;52.940;6.834;2023-08-12T01:02:47;19.90;99.90
57026;DHT22;43961;52.940;6.834;2023-08-12T01:05:14;19.30;99.90
57026;DHT22;43961;52.940;6.834;2023-08-12T01:07:42;19.30;99.90
57026;DHT22;43961;52.940;6.834;2023-08-12T01:10:09;19.30;99.90
57026;DHT22;43961;52.940;6.834;2023-08-12T01:12:54;19.70;99.90
57026;DHT22;43961;52.940;6.834;2023-08-12T01:15:23;19.80;99.90
57026;DHT22;43961;52.940;6.834;2023-08-12T01:17:51;19.10;99.90
57026;DHT22;43961;52.940;6.834;2023-08-12T01:20:21;19.60;99.90
57026;DHT22;43961;52.940;6.834;2023-08-12T01:22:56;19.00;99.90
57026;DHT22;43961;52.940;6.834;2023-08-12T01:25:24;19.60;99.90
57026;DHT22;43961;52.940;6.834;2023-08-12T01:27:50;19.60;99.90
57026;DHT22;43961;52.940;6.834;2023-08-12T01:30:17;19.10;99.90
57026;DHT22;43961;52.940;6.834;2023-08-12T01:35:24;18.90;99.90
57026;DHT22;43961;52.940;6.834;2023-08-12T01:37:51;18.90;99.90
57026;DHT22;43961;52.940;6.834;2023-08-12T01:40:19;19.40;99.90
57026;DHT22;43961;52.940;6.834;2023-08-12T01:42:45;18.90;99.90
57026;DHT22;43961;52.940;6.834;2023-08-12T01:45:11;19.00;99.90
57026;DHT22;43961;52.940;6.834;2023-08-12T01:47:37;19.40;99.90
57026;DHT22;43961;52.940;6.834;2023-08-12T01:50:03;19.40;99.90
57026;DHT22;43961;52.940;6.834;2023-08-12T01:52:29;19.30;99.90
57026;DHT22;43961;52.940;6.834;2023-08-12T01:54:55;18.90;99.90
57026;DHT22;43961;52.940;6.834;2023-08-12T01:57:21;18.80;99.90
57026;DHT22;43961;52.940;6.834;2023-08-12T01:59:46;19.00;99.90
57026;DHT22;43961;52.940;6.834;2023-08-12T02:02:12;18.70;99.90
57026;DHT22;43961;52.940;6.834;2023-08-12T02:04:40;19.20;99.90
57026;DHT22;43961;52.940;6.834;2023-08-12T02:07:06;19.10;99.90
57026;DHT22;43961;52.940;6.834;2023-08-12T02:09:31;19.20;99.90
57026;DHT22;43961;52.940;6.834;2023-08-12T02:11:57;18.60;99.90
57026;DHT22;43961;52.940;6.834;2023-08-12T02:14:23;18.50;99.90
57026;DHT22;43961;52.940;6.834;2023-08-12T02:16:49;19.10;99.90
57026;DHT22;43961;52.940;6.834;2023-08-12T02:19:14;18.40;99.90
57026;DHT22;43961;52.940;6.834;2023-08-12T02:21:41;18.90;99.90
57026;DHT22;43961;52.940;6.834;2023-08-12T02:24:07;18.40;99.90
57026;DHT22;43961;52.940;6.834;2023-08-12T02:26:34;18.40;99.90
57026;DHT22;43961;52.940;6.834;2023-08-12T02:28:59;18.50;99.90
57026;DHT22;43961;52.940;6.834;2023-08-12T02:31:25;19.00;99.90
57026;DHT22;43961;52.940;6.834;2023-08-12T02:33:51;18.60;99.90
57026;DHT22;43961;52.940;6.834;2023-08-12T02:36:17;18.70;99.90
57026;DHT22;43961;52.940;6.834;2023-08-12T02:38:42;18.50;99.90
57026;DHT22;43961;52.940;6.834;2023-08-12T02:41:08;18.50;99.90
57026;DHT22;43961;52.940;6.834;2023-08-12T02:43:34;18.80;99.90
57026;DHT22;43961;52.940;6.834;2023-08-12T02:45:59;18.50;99.90
57026;DHT22;43961;52.940;6.834;2023-08-12T02:48:25;18.50;99.90
57026;DHT22;43961;52.940;6.834;2023-08-12T02:50:51;18.50;99.90
57026;DHT22;43961;52.940;6.834;2023-08-12T02:53:17;18.70;99.90
57026;DHT22;43961;52.940;6.834;2023-08-12T02:55:44;18.60;99.90
57026;DHT22;43961;52.940;6.834;2023-08-12T02:58:10;19.00;99.90
57026;DHT22;43961;52.940;6.834;2023-08-12T03:00:36;18.90;99.90
57026;DHT22;43961;52.940;6.834;2023-08-12T03:03:01;18.90;99.90
57026;DHT22;43961;52.940;6.834;2023-08-12T03:05:27;19.10;99.90
57026;DHT22;43961;52.940;6.834;2023-08-12T03:07:52;18.60;99.90
57026;DHT22;43961;52.940;6.834;2023-08-12T03:10:18;18.80;99.90
57026;DHT22;43961;52.940;6.834;2023-08-12T03:12:44;19.20;99.90
57026;DHT22;43961;52.940;6.834;2023-08-12T03:15:11;18.80;99.90
57026;DHT22;43961;52.940;6.834;2023-08-12T03:17:37;18.80;99.90
57026;DHT22;43961;52.940;6.834;2023-08-12T03:20:07;19.20;99.90
57026;DHT22;43961;52.940;6.834;2023-08-12T03:22:35;18.90;99.90
57026;DHT22;43961;52.940;6.834;2023-08-12T03:25:01;19.30;99.90
57026;DHT22;43961;52.940;6.834;2023-08-12T03:31:07;19.00;99.90
57026;DHT22;43961;52.940;6.834;2023-08-12T03:33:33;19.40;99.90
57026;DHT22;43961;52.940;6.834;2023-08-12T03:35:59;19.00;99.90
57026;DHT22;43961;52.940;6.834;2023-08-12T03:38:25;19.20;99.90
57026;DHT22;43961;52.940;6.834;2023-08-12T03:40:50;19.30;99.90
57026;DHT22;43961;52.940;6.834;2023-08-12T03:43:16;19.30;99.90
57026;DHT22;43961;52.940;6.834;2023-08-12T03:45:45;19.40;99.90
57026;DHT22;43961;52.940;6.834;2023-08-12T03:48:11;18.90;99.90
57026;DHT22;43961;52.940;6.834;2023-08-12T03:50:37;19.00;99.90
57026;DHT22;43961;52.940;6.834;2023-08-12T03:53:04;19.10;99.90
57026;DHT22;43961;52.940;6.834;2023-08-12T03:55:33;19.10;99.90
57026;DHT22;43961;52.940;6.834;2023-08-12T03:57:59;19.30;99.90
57026;DHT22;43961;52.940;6.834;2023-08-12T04:00:27;19.20;99.90
57026;DHT22;43961;52.940;6.834;2023-08-12T04:02:53;19.00;99.90
57026;DHT22;43961;52.940;6.834;2023-08-12T04:05:18;19.00;99.90
57026;DHT22;43961;52.940;6.834;2023-08-12T04:07:44;18.70;99.90
57026;DHT22;43961;52.940;6.834;2023-08-12T04:10:10;18.80;99.90
57026;DHT22;43961;52.940;6.834;2023-08-12T04:12:36;19.10;99.90
57026;DHT22;43961;52.940;6.834;2023-08-12T04:15:02;19.30;99.90
57026;DHT22;43961;52.940;6.834;2023-08-12T04:17:31;19.10;99.90
57026;DHT22;43961;52.940;6.834;2023-08-12T04:19:57;18.90;99.90
57026;DHT22;43961;52.940;6.834;2023-08-12T04:22:23;19.30;99.90
57026;DHT22;43961;52.940;6.834;2023-08-12T04:24:48;18.80;99.90
57026;DHT22;43961;52.940;6.834;2023-08-12T04:27:14;18.90;99.90
57026;DHT22;43961;52.940;6.834;2023-08-12T04:29:42;19.30;99.90
57026;DHT22;43961;52.940;6.834;2023-08-12T04:32:08;19.20;99.90
57026;DHT22;43961;52.940;6.834;2023-08-12T04:34:33;19.00;99.90
57026;DHT22;43961;52.940;6.834;2023-08-12T04:36:59;18.70;99.90
57026;DHT22;43961;52.940;6.834;2023-08-12T04:39:25;19.30;99.90
57026;DHT22;43961;52.940;6.834;2023-08-12T04:41:51;19.10;99.90
57026;DHT22;43961;52.940;6.834;2023-08-12T04:44:16;18.90;99.90
57026;DHT22;43961;52.940;6.834;2023-08-12T04:46:42;18.90;99.90
57026;DHT22;43961;52.940;6.834;2023-08-12T04:49:08;18.90;99.90
57026;DHT22;43961;52.940;6.834;2023-08-12T04:51:34;19.00;99.90
57026;DHT22;43961;52.940;6.834;2023-08-12T04:53:59;19.00;99.90
57026;DHT22;43961;52.940;6.834;2023-08-12T04:56:28;18.90;99.90
57026;DHT22;43961;52.940;6.834;2023-08-12T04:58:55;19.10;99.90
57026;DHT22;43961;52.940;6.834;2023-08-12T05:01:21;19.20;99.90
57026;DHT22;43961;52.940;6.834;2023-08-12T05:03:47;19.20;99.90
57026;DHT22;43961;52.940;6.834;2023-08-12T05:06:12;19.10;99.90
57026;DHT22;43961;52.940;6.834;2023-08-12T05:08:38;19.50;99.90
57026;DHT22;43961;52.940;6.834;2023-08-12T05:11:04;19.00;99.90
57026;DHT22;43961;52.940;6.834;2023-08-12T05:13:29;19.10;99.90
57026;DHT22;43961;52.940;6.834;2023-08-12T05:15:56;19.80;99.90
57026;DHT22;43961;52.940;6.834;2023-08-12T05:18:22;19.30;99.90
57026;DHT22;43961;52.940;6.834;2023-08-12T05:20:52;19.20;99.90
57026;DHT22;43961;52.940;6.834;2023-08-12T05:23:20;19.30;99.90
57026;DHT22;43961;52.940;6.834;2023-08-12T05:25:45;19.70;99.90
57026;DHT22;43961;52.940;6.834;2023-08-12T05:28:11;19.70;99.90
57026;DHT22;43961;52.940;6.834;2023-08-12T05:30:36;19.60;99.90
57026;DHT22;43961;52.940;6.834;2023-08-12T05:33:03;19.70;99.90
57026;DHT22;43961;52.940;6.834;2023-08-12T05:35:33;19.80;99.90
57026;DHT22;43961;52.940;6.834;2023-08-12T05:37:58;19.80;99.90
57026;DHT22;43961;52.940;6.834;2023-08-12T05:40:24;19.40;99.90
57026;DHT22;43961;52.940;6.834;2023-08-12T05:42:50;19.30;99.90
57026;DHT22;43961;52.940;6.834;2023-08-12T05:45:15;19.90;99.90
57026;DHT22;43961;52.940;6.834;2023-08-12T05:47:41;19.90;99.90
57026;DHT22;43961;52.940;6.834;2023-08-12T05:50:07;19.40;99.90
57026;DHT22;43961;52.940;6.834;2023-08-12T05:52:33;19.90;99.90
57026;DHT22;43961;52.940;6.834;2023-08-12T05:54:58;19.40;99.90
57026;DHT22;43961;52.940;6.834;2023-08-12T05:57:24;20.00;99.90
57026;DHT22;43961;52.940;6.834;2023-08-12T05:59:50;20.00;99.90
57026;DHT22;43961;52.940;6.834;2023-08-12T06:02:15;20.20;99.90
57026;DHT22;43961;52.940;6.834;2023-08-12T06:04:41;19.60;99.90
57026;DHT22;43961;52.940;6.834;2023-08-12T06:07:07;20.40;99.90
57026;DHT22;43961;52.940;6.834;2023-08-12T06:09:33;20.10;99.90
57026;DHT22;43961;52.940;6.834;2023-08-12T06:11:58;20.00;99.90
57026;DHT22;43961;52.940;6.834;2023-08-12T06:14:24;20.00;99.90
57026;DHT22;43961;52.940;6.834;2023-08-12T06:16:49;20.10;99.90
57026;DHT22;43961;52.940;6.834;2023-08-12T06:19:15;20.20;99.90
57026;DHT22;43961;52.940;6.834;2023-08-12T06:21:41;20.60;99.90
57026;DHT22;43961;52.940;6.834;2023-08-12T06:24:06;20.40;99.90
57026;DHT22;43961;52.940;6.834;2023-08-12T06:26:32;20.70;99.90
57026;DHT22;43961;52.940;6.834;2023-08-12T06:28:58;20.50;99.90
57026;DHT22;43961;52.940;6.834;2023-08-12T06:31:23;20.80;99.90
57026;DHT22;43961;52.940;6.834;2023-08-12T06:33:49;20.50;99.90
57026;DHT22;43961;52.940;6.834;2023-08-12T06:36:15;21.10;99.90
57026;DHT22;43961;52.940;6.834;2023-08-12T06:38:40;20.80;99.90
57026;DHT22;43961;52.940;6.834;2023-08-12T06:41:06;20.70;99.90
57026;DHT22;43961;52.940;6.834;2023-08-12T06:43:32;21.10;99.90
57026;DHT22;43961;52.940;6.834;2023-08-12T06:45:57;20.70;99.90
57026;DHT22;43961;52.940;6.834;2023-08-12T06:48:23;21.20;99.90
57026;DHT22;43961;52.940;6.834;2023-08-12T06:50:55;20.70;99.90
57026;DHT22;43961;52.940;6.834;2023-08-12T06:53:21;20.90;99.90
57026;DHT22;43961;52.940;6.834;2023-08-12T06:55:47;20.70;99.90
57026;DHT22;43961;52.940;6.834;2023-08-12T06:58:13;21.30;99.90
57026;DHT22;43961;52.940;6.834;2023-08-12T07:00:40;21.10;99.90
57026;DHT22;43961;52.940;6.834;2023-08-12T07:03:06;21.30;99.90
57026;DHT22;43961;52.940;6.834;2023-08-12T07:05:31;20.80;99.90
57026;DHT22;43961;52.940;6.834;2023-08-12T07:07:57;21.10;99.90
57026;DHT22;43961;52.940;6.834;2023-08-12T07:10:23;20.90;99.90
57026;DHT22;43961;52.940;6.834;2023-08-12T07:12:48;20.90;99.90
57026;DHT22;43961;52.940;6.834;2023-08-12T07:15:15;21.00;99.90
57026;DHT22;43961;52.940;6.834;2023-08-12T07:17:41;21.40;99.90
57026;DHT22;43961;52.940;6.834;2023-08-12T07:20:07;21.00;99.90
57026;DHT22;43961;52.940;6.834;2023-08-12T07:22:33;21.40;99.90
57026;DHT22;43961;52.940;6.834;2023-08-12T07:24:59;20.80;99.90
57026;DHT22;43961;52.940;6.834;2023-08-12T07:27:27;21.20;99.90
57026;DHT22;43961;52.940;6.834;2023-08-12T07:29:53;20.70;99.90
57026;DHT22;43961;52.940;6.834;2023-08-12T07:32:19;20.80;99.90
57026;DHT22;43961;52.940;6.834;2023-08-12T07:34:45;21.40;99.90
57026;DHT22;43961;52.940;6.834;2023-08-12T07:37:11;20.70;99.90
57026;DHT22;43961;52.940;6.834;2023-08-12T07:39:37;20.80;99.90
57026;DHT22;43961;52.940;6.834;2023-08-12T07:42:02;20.60;99.90
57026;DHT22;43961;52.940;6.834;2023-08-12T07:44:29;21.30;99.90
57026;DHT22;43961;52.940;6.834;2023-08-12T07:46:54;21.00;99.90
57026;DHT22;43961;52.940;6.834;2023-08-12T07:49:20;20.60;99.90
57026;DHT22;43961;52.940;6.834;2023-08-12T07:51:49;21.30;99.90
57026;DHT22;43961;52.940;6.834;2023-08-12T07:54:15;21.10;99.90
57026;DHT22;43961;52.940;6.834;2023-08-12T07:56:41;20.80;99.90
57026;DHT22;43961;52.940;6.834;2023-08-12T07:59:06;21.30;99.90
57026;DHT22;43961;52.940;6.834;2023-08-12T08:01:32;21.10;99.90
57026;DHT22;43961;52.940;6.834;2023-08-12T08:03:58;20.80;99.90
57026;DHT22;43961;52.940;6.834;2023-08-12T08:06:23;21.20;99.90
57026;DHT22;43961;52.940;6.834;2023-08-12T08:08:49;20.80;99.90
57026;DHT22;43961;52.940;6.834;2023-08-12T08:11:15;20.80;99.90
57026;DHT22;43961;52.940;6.834;2023-08-12T08:13:41;21.10;99.90
57026;DHT22;43961;52.940;6.834;2023-08-12T08:16:07;21.20;99.90
57026;DHT22;43961;52.940;6.834;2023-08-12T08:18:32;20.90;99.90
57026;DHT22;43961;52.940;6.834;2023-08-12T08:20:58;21.40;99.90
57026;DHT22;43961;52.940;6.834;2023-08-12T08:23:24;20.60;99.90
57026;DHT22;43961;52.940;6.834;2023-08-12T08:25:50;20.80;99.90
57026;DHT22;43961;52.940;6.834;2023-08-12T08:28:15;21.00;99.90
57026;DHT22;43961;52.940;6.834;2023-08-12T08:30:41;20.90;99.90
57026;DHT22;43961;52.940;6.834;2023-08-12T08:33:07;21.20;99.90
57026;DHT22;43961;52.940;6.834;2023-08-12T08:35:33;21.20;99.90
57026;DHT22;43961;52.940;6.834;2023-08-12T08:37:59;21.30;99.90
57026;DHT22;43961;52.940;6.834;2023-08-12T08:40:26;20.80;99.90
57026;DHT22;43961;52.940;6.834;2023-08-12T08:42:53;20.80;99.90
57026;DHT22;43961;52.940;6.834;2023-08-12T08:45:21;21.10;99.90
57026;DHT22;43961;52.940;6.834;2023-08-12T08:47:48;20.50;99.90
57026;DHT22;43961;52.940;6.834;2023-08-12T08:50:15;21.00;99.90
57026;DHT22;43961;52.940;6.834;2023-08-12T08:52:41;20.80;99.90
57026;DHT22;43961;52.940;6.834;2023-08-12T08:55:09;21.00;99.90
57026;DHT22;43961;52.940;6.834;2023-08-12T08:57:37;20.70;99.90
57026;DHT22;43961;52.940;6.834;2023-08-12T09:00:03;20.80;99.90
57026;DHT22;43961;52.940;6.834;2023-08-12T09:02:33;20.40;99.90
57026;DHT22;43961;52.940;6.834;2023-08-12T09:04:59;21.00;99.90
57026;DHT22;43961;52.940;6.834;2023-08-12T09:07:25;20.40;99.90
57026;DHT22;43961;52.940;6.834;2023-08-12T09:09:53;20.70;99.90
57026;DHT22;43961;52.940;6.834;2023-08-12T09:12:20;20.30;99.90
57026;DHT22;43961;52.940;6.834;2023-08-12T09:14:46;20.70;99.90
57026;DHT22;43961;52.940;6.834;2023-08-12T09:17:11;20.40;99.90
57026;DHT22;43961;52.940;6.834;2023-08-12T09:19:37;20.50;99.90
57026;DHT22;43961;52.940;6.834;2023-08-12T09:22:04;20.40;99.90
57026;DHT22;43961;52.940;6.834;2023-08-12T09:27:06;20.30;99.90
57026;DHT22;43961;52.940;6.834;2023-08-12T09:29:33;20.30;99.90
57026;DHT22;43961;52.940;6.834;2023-08-12T09:32:25;20.60;99.90
57026;DHT22;43961;52.940;6.834;2023-08-12T09:34:55;20.30;99.90
57026;DHT22;43961;52.940;6.834;2023-08-12T09:37:22;20.70;99.90
57026;DHT22;43961;52.940;6.834;2023-08-12T09:39:49;20.60;99.90
57026;DHT22;43961;52.940;6.834;2023-08-12T09:42:16;20.50;99.90
57026;DHT22;43961;52.940;6.834;2023-08-12T09:44:42;20.40;99.90
57026;DHT22;43961;52.940;6.834;2023-08-12T09:47:08;20.60;99.90
57026;DHT22;43961;52.940;6.834;2023-08-12T09:49:35;20.10;99.90
57026;DHT22;43961;52.940;6.834;2023-08-12T09:52:02;20.40;99.90
57026;DHT22;43961;52.940;6.834;2023-08-12T09:54:30;20.10;99.90
57026;DHT22;43961;52.940;6.834;2023-08-12T09:57:01;20.60;99.90
57026;DHT22;43961;52.940;6.834;2023-08-12T09:59:30;20.40;99.90
57026;DHT22;43961;52.940;6.834;2023-08-12T10:01:57;20.60;99.90
57026;DHT22;43961;52.940;6.834;2023-08-12T10:04:27;20.00;99.90
57026;DHT22;43961;52.940;6.834;2023-08-12T10:06:54;20.50;99.90
57026;DHT22;43961;52.940;6.834;2023-08-12T10:09:20;20.00;99.90
57026;DHT22;43961;52.940;6.834;2023-08-12T10:11:47;20.50;99.90
57026;DHT22;43961;52.940;6.834;2023-08-12T10:14:15;20.50;99.90
57026;DHT22;43961;52.940;6.834;2023-08-12T10:16:45;20.50;99.90
57026;DHT22;43961;52.940;6.834;2023-08-12T10:19:11;19.90;99.90
57026;DHT22;43961;52.940;6.834;2023-08-12T10:21:38;20.00;99.90
57026;DHT22;43961;52.940;6.834;2023-08-12T10:24:05;20.50;99.90
57026;DHT22;43961;52.940;6.834;2023-08-12T10:26:32;20.40;99.90
57026;DHT22;43961;52.940;6.834;2023-08-12T10:28:59;20.00;99.90
57026;DHT22;43961;52.940;6.834;2023-08-12T10:31:27;20.50;99.90
57026;DHT22;43961;52.940;6.834;2023-08-12T10:33:54;20.10;99.90
57026;DHT22;43961;52.940;6.834;2023-08-12T10:36:21;20.30;99.90
57026;DHT22;43961;52.940;6.834;2023-08-12T10:38:47;20.00;99.90
57026;DHT22;43961;52.940;6.834;2023-08-12T10:41:23;19.90;99.90
57026;DHT22;43961;52.940;6.834;2023-08-12T10:43:54;20.40;99.90
57026;DHT22;43961;52.940;6.834;2023-08-12T10:49:07;20.10;99.90
57026;DHT22;43961;52.940;6.834;2023-08-12T10:51:40;20.20;99.90
57026;DHT22;43961;52.940;6.834;2023-08-12T10:54:25;20.00;99.90
57026;DHT22;43961;52.940;6.834;2023-08-12T11:02:33;20.10;99.90
57026;DHT22;43961;52.940;6.834;2023-08-12T11:05:10;20.20;99.90
57026;DHT22;43961;52.940;6.834;2023-08-12T11:07:41;20.90;99.90
57026;DHT22;43961;52.940;6.834;2023-08-12T11:10:14;20.90;99.90
57026;DHT22;43961;52.940;6.834;2023-08-12T11:12:48;20.80;99.90
57026;DHT22;43961;52.940;6.834;2023-08-12T11:15:28;20.40;99.90
57026;DHT22;43961;52.940;6.834;2023-08-12T11:17:54;20.80;99.90
57026;DHT22;43961;52.940;6.834;2023-08-12T11:20:21;21.00;99.90
57026;DHT22;43961;52.940;6.834;2023-08-12T11:22:47;20.70;99.90
57026;DHT22;43961;52.940;6.834;2023-08-12T11:25:14;20.80;99.90
57026;DHT22;43961;52.940;6.834;2023-08-12T11:30:07;21.50;99.90
57026;DHT22;43961;52.940;6.834;2023-08-12T11:32:34;20.90;99.90
57026;DHT22;43961;52.940;6.834;2023-08-12T11:35:00;21.10;99.90
57026;DHT22;43961;52.940;6.834;2023-08-12T11:37:26;21.50;99.90
57026;DHT22;43961;52.940;6.834;2023-08-12T11:39:52;21.00;99.90
57026;DHT22;43961;52.940;6.834;2023-08-12T11:42:18;21.30;99.90
57026;DHT22;43961;52.940;6.834;2023-08-12T11:44:44;20.90;99.90
57026;DHT22;43961;52.940;6.834;2023-08-12T11:47:09;21.00;99.90
57026;DHT22;43961;52.940;6.834;2023-08-12T11:49:35;20.80;99.90
57026;DHT22;43961;52.940;6.834;2023-08-12T11:52:01;20.60;99.90
57026;DHT22;43961;52.940;6.834;2023-08-12T11:54:27;21.10;99.90
57026;DHT22;43961;52.940;6.834;2023-08-12T11:56:53;21.30;99.90
57026;DHT22;43961;52.940;6.834;2023-08-12T11:59:21;20.70;99.90
57026;DHT22;43961;52.940;6.834;2023-08-12T12:01:49;21.10;99.90
57026;DHT22;43961;52.940;6.834;2023-08-12T12:04:15;20.80;99.90
57026;DHT22;43961;52.940;6.834;2023-08-12T12:09:56;21.00;99.90
57026;DHT22;43961;52.940;6.834;2023-08-12T12:12:24;20.70;99.90
57026;DHT22;43961;52.940;6.834;2023-08-12T12:14:55;21.20;99.90
57026;DHT22;43961;52.940;6.834;2023-08-12T12:17:22;21.30;99.90
57026;DHT22;43961;52.940;6.834;2023-08-12T12:19:55;21.50;99.90
57026;DHT22;43961;52.940;6.834;2023-08-12T12:22:26;21.80;99.90
57026;DHT22;43961;52.940;6.834;2023-08-12T12:39:30;21.40;99.90
57026;DHT22;43961;52.940;6.834;2023-08-12T12:46:51;22.10;99.90
57026;DHT22;43961;52.940;6.834;2023-08-12T12:49:16;21.40;99.90
57026;DHT22;43961;52.940;6.834;2023-08-12T12:51:42;21.50;99.90
57026;DHT22;43961;52.940;6.834;2023-08-12T12:54:08;22.10;99.90
57026;DHT22;43961;52.940;6.834;2023-08-12T12:59:00;22.10;99.90
57026;DHT22;43961;52.940;6.834;2023-08-12T13:01:26;22.60;99.90
57026;DHT22;43961;52.940;6.834;2023-08-12T13:03:52;23.00;99.90
57026;DHT22;43961;52.940;6.834;2023-08-12T13:06:17;22.60;99.90
57026;DHT22;43961;52.940;6.834;2023-08-12T13:08:43;23.20;99.90
57026;DHT22;43961;52.940;6.834;2023-08-12T13:11:08;23.30;99.90
57026;DHT22;43961;52.940;6.834;2023-08-12T13:13:34;23.20;99.90
57026;DHT22;43961;52.940;6.834;2023-08-12T13:16:00;23.10;99.90
57026;DHT22;43961;52.940;6.834;2023-08-12T13:18:25;23.50;99.90
57026;DHT22;43961;52.940;6.834;2023-08-12T13:20:51;23.50;99.90
57026;DHT22;43961;52.940;6.834;2023-08-12T13:23:17;23.60;99.90
57026;DHT22;43961;52.940;6.834;2023-08-12T13:25:42;23.30;99.90
57026;DHT22;43961;52.940;6.834;2023-08-12T13:30:34;23.80;99.90
57026;DHT22;43961;52.940;6.834;2023-08-12T13:33:00;24.20;99.90
57026;DHT22;43961;52.940;6.834;2023-08-12T13:35:26;23.80;99.90
57026;DHT22;43961;52.940;6.834;2023-08-12T13:37:52;24.30;99.90
57026;DHT22;43961;52.940;6.834;2023-08-12T13:40:18;24.40;99.90
57026;DHT22;43961;52.940;6.834;2023-08-12T13:42:43;23.90;99.90
57026;DHT22;43961;52.940;6.834;2023-08-12T13:45:12;23.50;99.90
57026;DHT22;43961;52.940;6.834;2023-08-12T13:47:38;23.80;99.90
57026;DHT22;43961;52.940;6.834;2023-08-12T13:50:04;23.80;99.90
57026;DHT22;43961;52.940;6.834;2023-08-12T13:52:30;24.10;99.90
57026;DHT22;43961;52.940;6.834;2023-08-12T13:54:56;24.30;99.90
57026;DHT22;43961;52.940;6.834;2023-08-12T13:57:22;24.00;99.90
57026;DHT22;43961;52.940;6.834;2023-08-12T13:59:47;23.70;99.90
57026;DHT22;43961;52.940;6.834;2023-08-12T14:02:15;23.80;99.90
57026;DHT22;43961;52.940;6.834;2023-08-12T14:04:41;24.10;99.90
57026;DHT22;43961;52.940;6.834;2023-08-12T14:07:07;23.60;99.90
57026;DHT22;43961;52.940;6.834;2023-08-12T14:09:34;23.70;99.90
57026;DHT22;43961;52.940;6.834;2023-08-12T14:12:00;23.70;99.90
57026;DHT22;43961;52.940;6.834;2023-08-12T14:14:26;24.30;99.90
57026;DHT22;43961;52.940;6.834;2023-08-12T14:16:54;23.90;99.90
57026;DHT22;43961;52.940;6.834;2023-08-12T14:19:20;24.10;99.90
57026;DHT22;43961;52.940;6.834;2023-08-12T14:21:46;24.30;99.90
57026;DHT22;43961;52.940;6.834;2023-08-12T14:24:12;23.80;99.90
57026;DHT22;43961;52.940;6.834;2023-08-12T14:26:39;23.90;99.90
57026;DHT22;43961;52.940;6.834;2023-08-12T14:29:05;23.90;99.90
57026;DHT22;43961;52.940;6.834;2023-08-12T14:31:31;24.40;99.90
57026;DHT22;43961;52.940;6.834;2023-08-12T14:33:56;24.30;99.90
57026;DHT22;43961;52.940;6.834;2023-08-12T14:36:23;24.10;99.90
57026;DHT22;43961;52.940;6.834;2023-08-12T14:38:50;24.30;99.90
57026;DHT22;43961;52.940;6.834;2023-08-12T14:41:16;24.20;99.90
57026;DHT22;43961;52.940;6.834;2023-08-12T14:43:41;23.70;99.90
57026;DHT22;43961;52.940;6.834;2023-08-12T14:46:07;23.60;99.90
57026;DHT22;43961;52.940;6.834;2023-08-12T14:48:33;23.80;99.90
57026;DHT22;43961;52.940;6.834;2023-08-12T14:50:58;23.90;99.90
57026;DHT22;43961;52.940;6.834;2023-08-12T14:53:25;23.90;99.90
57026;DHT22;43961;52.940;6.834;2023-08-12T14:55:51;23.70;99.90
57026;DHT22;43961;52.940;6.834;2023-08-12T14:58:16;23.60;99.90
57026;DHT22;43961;52.940;6.834;2023-08-12T15:00:42;24.10;99.90
57026;DHT22;43961;52.940;6.834;2023-08-12T15:03:08;23.70;99.90
57026;DHT22;43961;52.940;6.834;2023-08-12T15:05:36;24.10;99.90
57026;DHT22;43961;52.940;6.834;2023-08-12T15:08:01;24.10;99.90
57026;DHT22;43961;52.940;6.834;2023-08-12T15:10:28;23.60;99.90
57026;DHT22;43961;52.940;6.834;2023-08-12T15:12:55;23.90;99.90
57026;DHT22;43961;52.940;6.834;2023-08-12T15:15:20;23.50;99.90
57026;DHT22;43961;52.940;6.834;2023-08-12T15:17:46;23.80;99.90
57026;DHT22;43961;52.940;6.834;2023-08-12T15:20:12;23.40;99.90
57026;DHT22;43961;52.940;6.834;2023-08-12T15:22:37;23.30;99.90
57026;DHT22;43961;52.940;6.834;2023-08-12T15:25:03;23.30;99.90
57026;DHT22;43961;52.940;6.834;2023-08-12T15:27:29;23.70;99.90
57026;DHT22;43961;52.940;6.834;2023-08-12T15:29:56;23.50;99.90
57026;DHT22;43961;52.940;6.834;2023-08-12T15:37:14;23.30;99.90
57026;DHT22;43961;52.940;6.834;2023-08-12T15:42:06;23.20;99.90
57026;DHT22;43961;52.940;6.834;2023-08-12T15:46:58;22.90;99.90
57026;DHT22;43961;52.940;6.834;2023-08-12T15:49:24;23.20;99.90
57026;DHT22;43961;52.940;6.834;2023-08-12T15:51:50;23.00;99.90
57026;DHT22;43961;52.940;6.834;2023-08-12T15:54:16;22.80;99.90
57026;DHT22;43961;52.940;6.834;2023-08-12T15:59:08;22.70;99.90
57026;DHT22;43961;52.940;6.834;2023-08-12T16:01:33;22.90;99.90
57026;DHT22;43961;52.940;6.834;2023-08-12T16:04:00;22.60;99.90
57026;DHT22;43961;52.940;6.834;2023-08-12T16:11:19;22.90;99.90
57026;DHT22;43961;52.940;6.834;2023-08-12T16:13:45;22.30;99.90
57026;DHT22;43961;52.940;6.834;2023-08-12T16:16:11;22.50;99.90
57026;DHT22;43961;52.940;6.834;2023-08-12T16:21:03;22.20;99.90
57026;DHT22;43961;52.940;6.834;2023-08-12T16:23:28;22.50;99.90
57026;DHT22;43961;52.940;6.834;2023-08-12T16:25:58;22.50;99.90
57026;DHT22;43961;52.940;6.834;2023-08-12T16:28:24;22.60;99.90
57026;DHT22;43961;52.940;6.834;2023-08-12T16:30:50;22.70;99.90
57026;DHT22;43961;52.940;6.834;2023-08-12T16:33:15;22.50;99.90
57026;DHT22;43961;52.940;6.834;2023-08-12T16:40:33;22.20;99.90